Surfside, South Carolina
Current Conditions -  °F | °C
As of 5:35 AM on Thursday 27 Nov 2014 (Local Time) from KMYR Reporting Station
Overcast Overcast  
Wind Chill: 41°   Ceiling: 8500
Heat Index: 45°   Visibility: 10mi
Dew Point: 37°   Wind: 7mph
Humidity: 76%   Direction: 210°SSW
Pressure: 30.06"   Gusts: NA
Location:  33.6272°N, 78.9693°W
Report Text: KMYR 271035Z AUTO 21006KT 10SM BKN085 OVC110 07/03 A3006 RMK AO1
Loading
Personal Weather Stations






























Interactive Weather Map New forecast layout! Learn more

10-Day Weather Forecast

Advertisements
Track Severe Weather on mobile